sensor_id;sensor_type;location;lat;lon;timestamp;temperature;humidity
9446;DHT22;4761;49.490;10.908;2023-12-07T00:00:33;15.70;43.00
9446;DHT22;4761;49.490;10.908;2023-12-07T00:02:59;15.60;42.90
9446;DHT22;4761;49.490;10.908;2023-12-07T00:05:27;15.60;42.90
9446;DHT22;4761;49.490;10.908;2023-12-07T00:07:53;15.80;42.70
9446;DHT22;4761;49.490;10.908;2023-12-07T00:10:18;15.70;42.70
9446;DHT22;4761;49.490;10.908;2023-12-07T00:12:44;15.80;42.80
9446;DHT22;4761;49.490;10.908;2023-12-07T00:15:09;15.80;42.80
9446;DHT22;4761;49.490;10.908;2023-12-07T00:17:35;15.70;42.70
9446;DHT22;4761;49.490;10.908;2023-12-07T00:20:01;15.70;42.70
9446;DHT22;4761;49.490;10.908;2023-12-07T00:22:26;15.70;42.80
9446;DHT22;4761;49.490;10.908;2023-12-07T00:24:53;15.70;42.80
9446;DHT22;4761;49.490;10.908;2023-12-07T00:27:19;15.80;42.80
9446;DHT22;4761;49.490;10.908;2023-12-07T00:29:44;15.80;42.70
9446;DHT22;4761;49.490;10.908;2023-12-07T00:32:10;15.80;42.70
9446;DHT22;4761;49.490;10.908;2023-12-07T00:34:36;15.80;42.70
9446;DHT22;4761;49.490;10.908;2023-12-07T00:37:01;15.80;42.60
9446;DHT22;4761;49.490;10.908;2023-12-07T00:39:28;15.80;42.50
9446;DHT22;4761;49.490;10.908;2023-12-07T00:41:54;15.90;42.60
9446;DHT22;4761;49.490;10.908;2023-12-07T00:44:19;15.80;42.50
9446;DHT22;4761;49.490;10.908;2023-12-07T00:46:45;15.80;42.50
9446;DHT22;4761;49.490;10.908;2023-12-07T00:49:10;15.80;42.60
9446;DHT22;4761;49.490;10.908;2023-12-07T00:51:36;15.80;42.60
9446;DHT22;4761;49.490;10.908;2023-12-07T00:54:01;15.80;42.70
9446;DHT22;4761;49.490;10.908;2023-12-07T00:56:27;15.70;42.60
9446;DHT22;4761;49.490;10.908;2023-12-07T00:58:52;15.80;42.70
9446;DHT22;4761;49.490;10.908;2023-12-07T01:01:18;15.80;42.70
9446;DHT22;4761;49.490;10.908;2023-12-07T01:03:43;15.80;42.70
9446;DHT22;4761;49.490;10.908;2023-12-07T01:06:09;15.80;42.60
9446;DHT22;4761;49.490;10.908;2023-12-07T01:08:36;15.70;42.50
9446;DHT22;4761;49.490;10.908;2023-12-07T01:11:03;15.70;42.50
9446;DHT22;4761;49.490;10.908;2023-12-07T01:13:28;15.70;42.60
9446;DHT22;4761;49.490;10.908;2023-12-07T01:15:54;15.80;42.70
9446;DHT22;4761;49.490;10.908;2023-12-07T01:18:20;15.70;42.60
9446;DHT22;4761;49.490;10.908;2023-12-07T01:20:46;15.70;42.50
9446;DHT22;4761;49.490;10.908;2023-12-07T01:23:11;15.80;42.70
9446;DHT22;4761;49.490;10.908;2023-12-07T01:25:37;15.70;42.50
9446;DHT22;4761;49.490;10.908;2023-12-07T01:28:02;15.80;42.60
9446;DHT22;4761;49.490;10.908;2023-12-07T01:30:28;15.80;42.60
9446;DHT22;4761;49.490;10.908;2023-12-07T01:32:53;15.70;42.50
9446;DHT22;4761;49.490;10.908;2023-12-07T01:35:19;15.80;42.70
9446;DHT22;4761;49.490;10.908;2023-12-07T01:37:45;15.80;42.60
9446;DHT22;4761;49.490;10.908;2023-12-07T01:40:10;15.80;42.60
9446;DHT22;4761;49.490;10.908;2023-12-07T01:42:37;15.80;42.60
9446;DHT22;4761;49.490;10.908;2023-12-07T01:45:04;15.70;42.50
9446;DHT22;4761;49.490;10.908;2023-12-07T01:47:30;15.70;42.60
9446;DHT22;4761;49.490;10.908;2023-12-07T01:49:56;15.80;42.60
9446;DHT22;4761;49.490;10.908;2023-12-07T01:52:23;15.70;42.50
9446;DHT22;4761;49.490;10.908;2023-12-07T01:54:49;15.80;42.60
9446;DHT22;4761;49.490;10.908;2023-12-07T01:57:15;15.70;42.50
9446;DHT22;4761;49.490;10.908;2023-12-07T01:59:40;15.80;42.50
9446;DHT22;4761;49.490;10.908;2023-12-07T02:02:06;15.70;42.50
9446;DHT22;4761;49.490;10.908;2023-12-07T02:04:31;15.70;42.50
9446;DHT22;4761;49.490;10.908;2023-12-07T02:06:57;15.80;42.60
9446;DHT22;4761;49.490;10.908;2023-12-07T02:09:25;15.80;42.60
9446;DHT22;4761;49.490;10.908;2023-12-07T02:11:50;15.80;42.60
9446;DHT22;4761;49.490;10.908;2023-12-07T02:14:16;15.70;42.50
9446;DHT22;4761;49.490;10.908;2023-12-07T02:17:14;15.70;42.50
9446;DHT22;4761;49.490;10.908;2023-12-07T02:19:59;15.70;42.50
9446;DHT22;4761;49.490;10.908;2023-12-07T02:22:35;15.70;42.40
9446;DHT22;4761;49.490;10.908;2023-12-07T02:25:05;15.70;42.40
9446;DHT22;4761;49.490;10.908;2023-12-07T02:27:40;15.70;42.50
9446;DHT22;4761;49.490;10.908;2023-12-07T02:30:10;15.70;42.50
9446;DHT22;4761;49.490;10.908;2023-12-07T02:32:37;15.70;42.50
9446;DHT22;4761;49.490;10.908;2023-12-07T02:35:03;15.70;42.50
9446;DHT22;4761;49.490;10.908;2023-12-07T02:37:34;15.70;42.50
9446;DHT22;4761;49.490;10.908;2023-12-07T02:40:03;15.70;42.50
9446;DHT22;4761;49.490;10.908;2023-12-07T02:42:30;15.70;42.50
9446;DHT22;4761;49.490;10.908;2023-12-07T02:44:56;15.70;42.50
9446;DHT22;4761;49.490;10.908;2023-12-07T02:47:22;15.70;42.50
9446;DHT22;4761;49.490;10.908;2023-12-07T02:49:48;15.70;42.40
9446;DHT22;4761;49.490;10.908;2023-12-07T02:52:13;15.70;42.40
9446;DHT22;4761;49.490;10.908;2023-12-07T02:54:39;15.70;42.50
9446;DHT22;4761;49.490;10.908;2023-12-07T02:57:04;15.70;42.50
9446;DHT22;4761;49.490;10.908;2023-12-07T02:59:30;15.70;42.50
9446;DHT22;4761;49.490;10.908;2023-12-07T03:01:55;15.70;42.40
9446;DHT22;4761;49.490;10.908;2023-12-07T03:04:21;15.70;42.40
9446;DHT22;4761;49.490;10.908;2023-12-07T03:06:46;15.70;42.40
9446;DHT22;4761;49.490;10.908;2023-12-07T03:09:12;15.70;42.40
9446;DHT22;4761;49.490;10.908;2023-12-07T03:11:37;15.70;42.40
9446;DHT22;4761;49.490;10.908;2023-12-07T03:14:03;15.70;42.40
9446;DHT22;4761;49.490;10.908;2023-12-07T03:16:29;15.70;42.40
9446;DHT22;4761;49.490;10.908;2023-12-07T03:18:54;15.70;42.40
9446;DHT22;4761;49.490;10.908;2023-12-07T03:21:20;15.70;42.30
9446;DHT22;4761;49.490;10.908;2023-12-07T03:23:45;15.70;42.40
9446;DHT22;4761;49.490;10.908;2023-12-07T03:26:11;15.70;42.30
9446;DHT22;4761;49.490;10.908;2023-12-07T03:28:36;15.70;42.40
9446;DHT22;4761;49.490;10.908;2023-12-07T03:31:03;15.80;42.40
9446;DHT22;4761;49.490;10.908;2023-12-07T03:33:28;15.70;42.30
9446;DHT22;4761;49.490;10.908;2023-12-07T03:35:54;15.70;42.30
9446;DHT22;4761;49.490;10.908;2023-12-07T03:38:19;15.70;42.30
9446;DHT22;4761;49.490;10.908;2023-12-07T03:40:45;15.70;42.30
9446;DHT22;4761;49.490;10.908;2023-12-07T03:43:13;15.70;42.30
9446;DHT22;4761;49.490;10.908;2023-12-07T03:45:38;15.70;42.30
9446;DHT22;4761;49.490;10.908;2023-12-07T03:48:04;15.70;42.30
9446;DHT22;4761;49.490;10.908;2023-12-07T03:50:30;15.70;42.30
9446;DHT22;4761;49.490;10.908;2023-12-07T03:52:55;15.70;42.30
9446;DHT22;4761;49.490;10.908;2023-12-07T03:55:21;15.70;42.30
9446;DHT22;4761;49.490;10.908;2023-12-07T03:57:46;15.70;42.20
9446;DHT22;4761;49.490;10.908;2023-12-07T04:00:12;15.70;42.20
9446;DHT22;4761;49.490;10.908;2023-12-07T04:02:38;15.70;42.20
9446;DHT22;4761;49.490;10.908;2023-12-07T04:05:04;15.70;42.20
9446;DHT22;4761;49.490;10.908;2023-12-07T04:07:29;15.70;42.20
9446;DHT22;4761;49.490;10.908;2023-12-07T04:09:55;15.70;42.20
9446;DHT22;4761;49.490;10.908;2023-12-07T04:12:23;15.70;42.40
9446;DHT22;4761;49.490;10.908;2023-12-07T04:14:49;15.70;42.10
9446;DHT22;4761;49.490;10.908;2023-12-07T04:17:15;15.70;42.20
9446;DHT22;4761;49.490;10.908;2023-12-07T04:19:40;15.70;42.20
9446;DHT22;4761;49.490;10.908;2023-12-07T04:22:06;15.70;42.20
9446;DHT22;4761;49.490;10.908;2023-12-07T04:24:31;15.70;42.80
9446;DHT22;4761;49.490;10.908;2023-12-07T04:26:57;15.70;42.20
9446;DHT22;4761;49.490;10.908;2023-12-07T04:29:22;15.70;42.10
9446;DHT22;4761;49.490;10.908;2023-12-07T04:31:48;15.70;42.10
9446;DHT22;4761;49.490;10.908;2023-12-07T04:34:13;15.70;42.20
9446;DHT22;4761;49.490;10.908;2023-12-07T04:36:39;15.70;42.10
9446;DHT22;4761;49.490;10.908;2023-12-07T04:39:04;15.70;42.10
9446;DHT22;4761;49.490;10.908;2023-12-07T04:41:30;15.70;42.10
9446;DHT22;4761;49.490;10.908;2023-12-07T04:43:55;15.80;42.10
9446;DHT22;4761;49.490;10.908;2023-12-07T04:46:21;15.70;42.00
9446;DHT22;4761;49.490;10.908;2023-12-07T04:48:46;15.70;41.90
9446;DHT22;4761;49.490;10.908;2023-12-07T04:51:12;15.80;42.00
9446;DHT22;4761;49.490;10.908;2023-12-07T04:53:38;15.90;41.90
9446;DHT22;4761;49.490;10.908;2023-12-07T04:56:04;15.80;41.70
9446;DHT22;4761;49.490;10.908;2023-12-07T04:58:30;15.90;41.80
9446;DHT22;4761;49.490;10.908;2023-12-07T05:00:55;15.80;41.70
9446;DHT22;4761;49.490;10.908;2023-12-07T05:03:21;15.80;41.70
9446;DHT22;4761;49.490;10.908;2023-12-07T05:05:47;15.80;41.80
9446;DHT22;4761;49.490;10.908;2023-12-07T05:08:13;15.80;41.80
9446;DHT22;4761;49.490;10.908;2023-12-07T05:10:39;15.70;41.70
9446;DHT22;4761;49.490;10.908;2023-12-07T05:13:04;15.80;41.80
9446;DHT22;4761;49.490;10.908;2023-12-07T05:15:30;15.70;41.70
9446;DHT22;4761;49.490;10.908;2023-12-07T05:17:55;15.80;41.70
9446;DHT22;4761;49.490;10.908;2023-12-07T05:20:21;15.70;41.50
9446;DHT22;4761;49.490;10.908;2023-12-07T05:22:48;15.80;41.60
9446;DHT22;4761;49.490;10.908;2023-12-07T05:25:13;15.70;41.50
9446;DHT22;4761;49.490;10.908;2023-12-07T05:27:39;15.70;41.50
9446;DHT22;4761;49.490;10.908;2023-12-07T05:30:05;15.70;41.50
9446;DHT22;4761;49.490;10.908;2023-12-07T05:32:31;15.70;41.50
9446;DHT22;4761;49.490;10.908;2023-12-07T05:34:56;15.70;41.50
9446;DHT22;4761;49.490;10.908;2023-12-07T05:37:22;15.70;41.50
9446;DHT22;4761;49.490;10.908;2023-12-07T05:39:47;15.70;41.40
9446;DHT22;4761;49.490;10.908;2023-12-07T05:42:13;15.70;41.40
9446;DHT22;4761;49.490;10.908;2023-12-07T05:44:38;15.70;41.40
9446;DHT22;4761;49.490;10.908;2023-12-07T05:47:04;15.70;41.40
9446;DHT22;4761;49.490;10.908;2023-12-07T05:49:29;15.60;41.30
9446;DHT22;4761;49.490;10.908;2023-12-07T05:51:55;15.60;41.30
9446;DHT22;4761;49.490;10.908;2023-12-07T05:54:20;15.60;41.40
9446;DHT22;4761;49.490;10.908;2023-12-07T05:56:47;15.70;41.40
9446;DHT22;4761;49.490;10.908;2023-12-07T05:59:13;15.70;41.30
9446;DHT22;4761;49.490;10.908;2023-12-07T06:01:39;15.70;41.30
9446;DHT22;4761;49.490;10.908;2023-12-07T06:04:08;15.70;41.30
9446;DHT22;4761;49.490;10.908;2023-12-07T06:06:33;15.60;41.20
9446;DHT22;4761;49.490;10.908;2023-12-07T06:08:59;15.60;41.30
9446;DHT22;4761;49.490;10.908;2023-12-07T06:11:24;15.60;41.40
9446;DHT22;4761;49.490;10.908;2023-12-07T06:13:50;15.70;41.40
9446;DHT22;4761;49.490;10.908;2023-12-07T06:16:16;15.70;41.40
9446;DHT22;4761;49.490;10.908;2023-12-07T06:18:42;15.60;41.30
9446;DHT22;4761;49.490;10.908;2023-12-07T06:21:08;15.70;41.30
9446;DHT22;4761;49.490;10.908;2023-12-07T06:23:34;15.60;41.20
9446;DHT22;4761;49.490;10.908;2023-12-07T06:25:59;15.60;41.20
9446;DHT22;4761;49.490;10.908;2023-12-07T06:28:25;15.60;41.30
9446;DHT22;4761;49.490;10.908;2023-12-07T06:30:50;15.60;41.20
9446;DHT22;4761;49.490;10.908;2023-12-07T06:33:16;15.60;41.20
9446;DHT22;4761;49.490;10.908;2023-12-07T06:35:41;15.60;41.20
9446;DHT22;4761;49.490;10.908;2023-12-07T06:38:07;15.60;41.10
9446;DHT22;4761;49.490;10.908;2023-12-07T06:40:32;15.60;41.10
9446;DHT22;4761;49.490;10.908;2023-12-07T06:42:58;15.60;41.10
9446;DHT22;4761;49.490;10.908;2023-12-07T06:45:24;15.60;41.10
9446;DHT22;4761;49.490;10.908;2023-12-07T06:47:49;15.60;41.00
9446;DHT22;4761;49.490;10.908;2023-12-07T06:50:15;15.60;41.00
9446;DHT22;4761;49.490;10.908;2023-12-07T06:52:41;15.60;41.00
9446;DHT22;4761;49.490;10.908;2023-12-07T06:55:07;15.60;41.00
9446;DHT22;4761;49.490;10.908;2023-12-07T06:57:35;15.60;40.80
9446;DHT22;4761;49.490;10.908;2023-12-07T07:00:01;15.60;40.90
9446;DHT22;4761;49.490;10.908;2023-12-07T07:02:31;15.60;40.80
9446;DHT22;4761;49.490;10.908;2023-12-07T07:04:56;15.50;41.30
9446;DHT22;4761;49.490;10.908;2023-12-07T07:07:22;15.50;40.70
9446;DHT22;4761;49.490;10.908;2023-12-07T07:09:47;15.50;40.70
9446;DHT22;4761;49.490;10.908;2023-12-07T07:12:13;15.50;40.70
9446;DHT22;4761;49.490;10.908;2023-12-07T07:14:38;15.50;40.70
9446;DHT22;4761;49.490;10.908;2023-12-07T07:17:05;15.50;40.70
9446;DHT22;4761;49.490;10.908;2023-12-07T07:19:30;15.50;40.70
9446;DHT22;4761;49.490;10.908;2023-12-07T07:21:56;15.50;40.60
9446;DHT22;4761;49.490;10.908;2023-12-07T07:24:22;15.50;40.60
9446;DHT22;4761;49.490;10.908;2023-12-07T07:26:47;15.50;40.60
9446;DHT22;4761;49.490;10.908;2023-12-07T07:29:13;15.50;40.60
9446;DHT22;4761;49.490;10.908;2023-12-07T07:31:38;15.50;40.60
9446;DHT22;4761;49.490;10.908;2023-12-07T07:34:04;15.50;40.60
9446;DHT22;4761;49.490;10.908;2023-12-07T07:36:31;15.50;40.60
9446;DHT22;4761;49.490;10.908;2023-12-07T07:38:57;15.50;40.60
9446;DHT22;4761;49.490;10.908;2023-12-07T07:41:23;15.50;40.60
9446;DHT22;4761;49.490;10.908;2023-12-07T07:43:48;15.50;40.60
9446;DHT22;4761;49.490;10.908;2023-12-07T07:46:14;15.50;40.60
9446;DHT22;4761;49.490;10.908;2023-12-07T07:48:40;15.50;40.60
9446;DHT22;4761;49.490;10.908;2023-12-07T07:51:05;15.50;40.60
9446;DHT22;4761;49.490;10.908;2023-12-07T07:53:31;15.50;40.70
9446;DHT22;4761;49.490;10.908;2023-12-07T07:55:56;15.50;40.70
9446;DHT22;4761;49.490;10.908;2023-12-07T07:58:22;15.50;40.70
9446;DHT22;4761;49.490;10.908;2023-12-07T08:00:47;15.50;40.70
9446;DHT22;4761;49.490;10.908;2023-12-07T08:03:13;15.50;40.70
9446;DHT22;4761;49.490;10.908;2023-12-07T08:05:38;15.50;40.60
9446;DHT22;4761;49.490;10.908;2023-12-07T08:08:04;15.50;40.60
9446;DHT22;4761;49.490;10.908;2023-12-07T08:10:30;15.50;41.30
9446;DHT22;4761;49.490;10.908;2023-12-07T08:12:55;15.60;40.80
9446;DHT22;4761;49.490;10.908;2023-12-07T08:15:21;15.50;40.60
9446;DHT22;4761;49.490;10.908;2023-12-07T08:17:47;15.50;40.60
9446;DHT22;4761;49.490;10.908;2023-12-07T08:20:12;15.50;40.60
9446;DHT22;4761;49.490;10.908;2023-12-07T08:22:40;15.50;40.60
9446;DHT22;4761;49.490;10.908;2023-12-07T08:25:10;15.50;40.60
9446;DHT22;4761;49.490;10.908;2023-12-07T08:27:37;15.50;40.70
9446;DHT22;4761;49.490;10.908;2023-12-07T08:30:03;15.50;40.60
9446;DHT22;4761;49.490;10.908;2023-12-07T08:32:29;15.50;40.70
9446;DHT22;4761;49.490;10.908;2023-12-07T08:34:54;15.50;40.60
9446;DHT22;4761;49.490;10.908;2023-12-07T08:37:20;15.50;40.70
9446;DHT22;4761;49.490;10.908;2023-12-07T08:39:46;15.50;40.70
9446;DHT22;4761;49.490;10.908;2023-12-07T08:42:11;15.50;40.70
9446;DHT22;4761;49.490;10.908;2023-12-07T08:44:37;15.50;40.70
9446;DHT22;4761;49.490;10.908;2023-12-07T08:47:03;15.50;40.70
9446;DHT22;4761;49.490;10.908;2023-12-07T08:49:29;15.50;40.70
9446;DHT22;4761;49.490;10.908;2023-12-07T08:51:54;15.50;40.80
9446;DHT22;4761;49.490;10.908;2023-12-07T08:54:21;15.50;40.80
9446;DHT22;4761;49.490;10.908;2023-12-07T08:56:46;15.50;40.80
9446;DHT22;4761;49.490;10.908;2023-12-07T08:59:12;15.50;40.80
9446;DHT22;4761;49.490;10.908;2023-12-07T09:01:38;15.50;40.90
9446;DHT22;4761;49.490;10.908;2023-12-07T09:04:03;15.50;40.90
9446;DHT22;4761;49.490;10.908;2023-12-07T09:06:29;15.50;40.90
9446;DHT22;4761;49.490;10.908;2023-12-07T09:08:55;15.60;40.90
9446;DHT22;4761;49.490;10.908;2023-12-07T09:11:20;15.60;40.90
9446;DHT22;4761;49.490;10.908;2023-12-07T09:13:46;15.60;40.90
9446;DHT22;4761;49.490;10.908;2023-12-07T09:16:12;15.60;41.00
9446;DHT22;4761;49.490;10.908;2023-12-07T09:18:37;15.60;41.00
9446;DHT22;4761;49.490;10.908;2023-12-07T09:21:03;15.60;40.90
9446;DHT22;4761;49.490;10.908;2023-12-07T09:23:29;15.70;41.00
9446;DHT22;4761;49.490;10.908;2023-12-07T09:25:55;15.70;41.00
9446;DHT22;4761;49.490;10.908;2023-12-07T09:28:20;15.70;41.10
9446;DHT22;4761;49.490;10.908;2023-12-07T09:30:46;15.60;41.10
9446;DHT22;4761;49.490;10.908;2023-12-07T09:33:12;15.70;41.20
9446;DHT22;4761;49.490;10.908;2023-12-07T09:35:39;15.70;41.30
9446;DHT22;4761;49.490;10.908;2023-12-07T09:38:04;15.60;41.30
9446;DHT22;4761;49.490;10.908;2023-12-07T09:40:30;15.60;41.30
9446;DHT22;4761;49.490;10.908;2023-12-07T09:42:56;15.70;41.40
9446;DHT22;4761;49.490;10.908;2023-12-07T09:45:21;15.60;41.30
9446;DHT22;4761;49.490;10.908;2023-12-07T09:47:52;15.70;41.40
9446;DHT22;4761;49.490;10.908;2023-12-07T09:50:22;15.60;41.40
9446;DHT22;4761;49.490;10.908;2023-12-07T09:52:52;15.60;41.40
9446;DHT22;4761;49.490;10.908;2023-12-07T09:55:18;15.70;42.10
9446;DHT22;4761;49.490;10.908;2023-12-07T09:57:45;15.60;41.50
9446;DHT22;4761;49.490;10.908;2023-12-07T10:00:12;15.70;41.60
9446;DHT22;4761;49.490;10.908;2023-12-07T10:02:40;15.70;41.60
9446;DHT22;4761;49.490;10.908;2023-12-07T10:05:07;15.70;41.60
9446;DHT22;4761;49.490;10.908;2023-12-07T10:07:36;15.70;41.60
9446;DHT22;4761;49.490;10.908;2023-12-07T10:10:03;15.80;42.40
9446;DHT22;4761;49.490;10.908;2023-12-07T10:12:30;15.80;42.20
9446;DHT22;4761;49.490;10.908;2023-12-07T10:14:56;15.80;42.20
9446;DHT22;4761;49.490;10.908;2023-12-07T10:17:21;15.80;42.20
9446;DHT22;4761;49.490;10.908;2023-12-07T10:20:06;15.80;42.10
9446;DHT22;4761;49.490;10.908;2023-12-07T10:22:34;15.80;42.10
9446;DHT22;4761;49.490;10.908;2023-12-07T10:25:00;15.70;42.00
9446;DHT22;4761;49.490;10.908;2023-12-07T10:27:26;15.70;42.00
9446;DHT22;4761;49.490;10.908;2023-12-07T10:29:53;15.70;42.00
9446;DHT22;4761;49.490;10.908;2023-12-07T10:32:21;15.70;42.00
9446;DHT22;4761;49.490;10.908;2023-12-07T10:34:46;15.80;42.00
9446;DHT22;4761;49.490;10.908;2023-12-07T10:37:12;15.70;41.90
9446;DHT22;4761;49.490;10.908;2023-12-07T10:39:37;15.80;41.90
9446;DHT22;4761;49.490;10.908;2023-12-07T10:42:09;15.70;41.80
9446;DHT22;4761;49.490;10.908;2023-12-07T10:44:36;15.70;41.80
9446;DHT22;4761;49.490;10.908;2023-12-07T10:47:05;15.80;42.00
9446;DHT22;4761;49.490;10.908;2023-12-07T10:49:32;15.80;42.00
9446;DHT22;4761;49.490;10.908;2023-12-07T10:52:00;15.80;42.00
9446;DHT22;4761;49.490;10.908;2023-12-07T10:54:38;15.80;42.00
9446;DHT22;4761;49.490;10.908;2023-12-07T10:57:07;15.70;41.90
9446;DHT22;4761;49.490;10.908;2023-12-07T10:59:35;15.80;42.10
9446;DHT22;4761;49.490;10.908;2023-12-07T11:02:02;15.80;42.00
9446;DHT22;4761;49.490;10.908;2023-12-07T11:04:29;15.80;42.10
9446;DHT22;4761;49.490;10.908;2023-12-07T11:06:59;15.70;41.90
9446;DHT22;4761;49.490;10.908;2023-12-07T11:09:32;15.80;42.00
9446;DHT22;4761;49.490;10.908;2023-12-07T11:12:10;15.80;42.00
9446;DHT22;4761;49.490;10.908;2023-12-07T11:14:38;15.80;41.90
9446;DHT22;4761;49.490;10.908;2023-12-07T11:17:04;15.70;41.80
9446;DHT22;4761;49.490;10.908;2023-12-07T11:22:00;15.70;41.90
9446;DHT22;4761;49.490;10.908;2023-12-07T11:24:26;15.70;41.90
9446;DHT22;4761;49.490;10.908;2023-12-07T11:26:53;15.70;41.80
9446;DHT22;4761;49.490;10.908;2023-12-07T11:29:24;15.70;41.80
9446;DHT22;4761;49.490;10.908;2023-12-07T11:31:50;15.70;41.70
9446;DHT22;4761;49.490;10.908;2023-12-07T11:34:42;15.70;41.70
9446;DHT22;4761;49.490;10.908;2023-12-07T11:37:09;15.80;41.80
9446;DHT22;4761;49.490;10.908;2023-12-07T11:39:36;15.70;41.70
9446;DHT22;4761;49.490;10.908;2023-12-07T11:42:07;15.80;41.80
9446;DHT22;4761;49.490;10.908;2023-12-07T11:44:37;15.80;41.80
9446;DHT22;4761;49.490;10.908;2023-12-07T11:47:04;15.80;41.70
9446;DHT22;4761;49.490;10.908;2023-12-07T11:49:30;15.70;41.60
9446;DHT22;4761;49.490;10.908;2023-12-07T11:51:59;15.70;41.60
9446;DHT22;4761;49.490;10.908;2023-12-07T11:54:28;15.80;41.80
9446;DHT22;4761;49.490;10.908;2023-12-07T11:56:55;15.80;41.80
9446;DHT22;4761;49.490;10.908;2023-12-07T11:59:20;15.80;41.80
9446;DHT22;4761;49.490;10.908;2023-12-07T12:01:47;15.80;41.80
9446;DHT22;4761;49.490;10.908;2023-12-07T12:04:14;15.70;41.70
9446;DHT22;4761;49.490;10.908;2023-12-07T12:06:40;15.80;41.90
9446;DHT22;4761;49.490;10.908;2023-12-07T12:09:05;15.70;41.80
9446;DHT22;4761;49.490;10.908;2023-12-07T12:11:31;15.80;41.80
9446;DHT22;4761;49.490;10.908;2023-12-07T12:13:56;15.80;41.80
9446;DHT22;4761;49.490;10.908;2023-12-07T12:16:22;15.70;41.70
9446;DHT22;4761;49.490;10.908;2023-12-07T12:18:48;15.80;41.70
9446;DHT22;4761;49.490;10.908;2023-12-07T12:21:14;15.80;41.70
9446;DHT22;4761;49.490;10.908;2023-12-07T12:23:40;15.70;41.50
9446;DHT22;4761;49.490;10.908;2023-12-07T12:26:07;15.70;41.50
9446;DHT22;4761;49.490;10.908;2023-12-07T12:28:33;15.80;41.60
9446;DHT22;4761;49.490;10.908;2023-12-07T12:31:01;15.80;41.60
9446;DHT22;4761;49.490;10.908;2023-12-07T12:33:26;15.70;41.50
9446;DHT22;4761;49.490;10.908;2023-12-07T12:36:04;15.80;41.50
9446;DHT22;4761;49.490;10.908;2023-12-07T12:38:30;15.80;41.50
9446;DHT22;4761;49.490;10.908;2023-12-07T12:40:56;15.80;41.40
9446;DHT22;4761;49.490;10.908;2023-12-07T12:43:22;15.80;41.40
9446;DHT22;4761;49.490;10.908;2023-12-07T12:45:47;15.70;41.20
9446;DHT22;4761;49.490;10.908;2023-12-07T12:48:13;15.70;41.30
9446;DHT22;4761;49.490;10.908;2023-12-07T12:50:40;15.80;41.30
9446;DHT22;4761;49.490;10.908;2023-12-07T12:53:10;15.80;41.20
9446;DHT22;4761;49.490;10.908;2023-12-07T12:55:38;15.80;41.20
9446;DHT22;4761;49.490;10.908;2023-12-07T12:58:05;15.90;41.10
9446;DHT22;4761;49.490;10.908;2023-12-07T13:00:32;15.90;41.00
9446;DHT22;4761;49.490;10.908;2023-12-07T13:02:59;15.90;40.90
9446;DHT22;4761;49.490;10.908;2023-12-07T13:05:25;15.90;40.80
9446;DHT22;4761;49.490;10.908;2023-12-07T13:07:51;15.90;40.70
9446;DHT22;4761;49.490;10.908;2023-12-07T13:10:16;15.90;40.50
9446;DHT22;4761;49.490;10.908;2023-12-07T13:12:42;15.90;40.70
9446;DHT22;4761;49.490;10.908;2023-12-07T13:15:09;15.90;41.20
9446;DHT22;4761;49.490;10.908;2023-12-07T13:17:35;16.00;42.40
9446;DHT22;4761;49.490;10.908;2023-12-07T13:20:00;16.00;42.00
9446;DHT22;4761;49.490;10.908;2023-12-07T13:22:26;16.00;41.70
9446;DHT22;4761;49.490;10.908;2023-12-07T13:24:51;15.90;41.60
9446;DHT22;4761;49.490;10.908;2023-12-07T13:27:17;15.90;41.50
9446;DHT22;4761;49.490;10.908;2023-12-07T13:29:43;15.90;41.50
9446;DHT22;4761;49.490;10.908;2023-12-07T13:32:09;15.90;41.50
9446;DHT22;4761;49.490;10.908;2023-12-07T13:34:35;15.90;41.40
9446;DHT22;4761;49.490;10.908;2023-12-07T13:37:00;15.90;41.50
9446;DHT22;4761;49.490;10.908;2023-12-07T13:39:26;15.90;41.60
9446;DHT22;4761;49.490;10.908;2023-12-07T13:41:56;15.90;41.60
9446;DHT22;4761;49.490;10.908;2023-12-07T13:44:21;15.90;41.70
9446;DHT22;4761;49.490;10.908;2023-12-07T13:46:49;15.90;41.60
9446;DHT22;4761;49.490;10.908;2023-12-07T13:49:14;15.90;41.50
9446;DHT22;4761;49.490;10.908;2023-12-07T13:51:40;15.90;41.40
9446;DHT22;4761;49.490;10.908;2023-12-07T13:54:07;15.90;41.30
9446;DHT22;4761;49.490;10.908;2023-12-07T13:56:34;15.90;41.20
9446;DHT22;4761;49.490;10.908;2023-12-07T13:58:59;15.80;41.20
9446;DHT22;4761;49.490;10.908;2023-12-07T14:01:25;15.80;41.10
9446;DHT22;4761;49.490;10.908;2023-12-07T14:03:51;15.80;41.10
9446;DHT22;4761;49.490;10.908;2023-12-07T14:06:24;15.80;41.10
9446;DHT22;4761;49.490;10.908;2023-12-07T14:08:50;15.80;41.00
9446;DHT22;4761;49.490;10.908;2023-12-07T14:11:17;15.80;41.00
9446;DHT22;4761;49.490;10.908;2023-12-07T14:13:43;15.90;41.60
9446;DHT22;4761;49.490;10.908;2023-12-07T14:16:12;15.80;40.90
9446;DHT22;4761;49.490;10.908;2023-12-07T14:18:37;15.80;40.80
9446;DHT22;4761;49.490;10.908;2023-12-07T14:21:03;15.80;40.80
9446;DHT22;4761;49.490;10.908;2023-12-07T14:23:28;15.80;40.90
9446;DHT22;4761;49.490;10.908;2023-12-07T14:25:54;15.80;40.90
9446;DHT22;4761;49.490;10.908;2023-12-07T14:28:24;15.80;40.80
9446;DHT22;4761;49.490;10.908;2023-12-07T14:30:49;15.80;40.80
9446;DHT22;4761;49.490;10.908;2023-12-07T14:33:15;15.90;40.80
9446;DHT22;4761;49.490;10.908;2023-12-07T14:35:41;15.80;40.60
9446;DHT22;4761;49.490;10.908;2023-12-07T14:38:06;15.80;40.60
9446;DHT22;4761;49.490;10.908;2023-12-07T14:40:32;15.80;40.70
9446;DHT22;4761;49.490;10.908;2023-12-07T14:42:57;15.80;40.70
9446;DHT22;4761;49.490;10.908;2023-12-07T14:45:23;15.80;40.70
9446;DHT22;4761;49.490;10.908;2023-12-07T14:47:48;15.80;40.70
9446;DHT22;4761;49.490;10.908;2023-12-07T14:50:14;15.80;40.70
9446;DHT22;4761;49.490;10.908;2023-12-07T14:52:40;15.80;40.60
9446;DHT22;4761;49.490;10.908;2023-12-07T14:55:06;15.70;40.50
9446;DHT22;4761;49.490;10.908;2023-12-07T14:57:31;15.80;40.60
9446;DHT22;4761;49.490;10.908;2023-12-07T14:59:57;15.80;40.70
9446;DHT22;4761;49.490;10.908;2023-12-07T15:02:24;15.70;40.60
9446;DHT22;4761;49.490;10.908;2023-12-07T15:04:49;15.80;40.70
9446;DHT22;4761;49.490;10.908;2023-12-07T15:07:15;15.70;40.50
9446;DHT22;4761;49.490;10.908;2023-12-07T15:09:42;15.80;40.50
9446;DHT22;4761;49.490;10.908;2023-12-07T15:12:07;15.80;40.50
9446;DHT22;4761;49.490;10.908;2023-12-07T15:14:33;15.70;40.40
9446;DHT22;4761;49.490;10.908;2023-12-07T15:16:59;15.70;40.40
9446;DHT22;4761;49.490;10.908;2023-12-07T15:19:24;15.70;40.40
9446;DHT22;4761;49.490;10.908;2023-12-07T15:21:50;15.70;40.30
9446;DHT22;4761;49.490;10.908;2023-12-07T15:24:16;15.70;40.40
9446;DHT22;4761;49.490;10.908;2023-12-07T15:26:42;15.70;40.30
9446;DHT22;4761;49.490;10.908;2023-12-07T15:29:09;15.70;40.20
9446;DHT22;4761;49.490;10.908;2023-12-07T15:31:34;15.70;40.20
9446;DHT22;4761;49.490;10.908;2023-12-07T15:34:00;15.70;40.20
9446;DHT22;4761;49.490;10.908;2023-12-07T15:36:25;15.70;40.20
9446;DHT22;4761;49.490;10.908;2023-12-07T15:38:51;15.70;41.10
9446;DHT22;4761;49.490;10.908;2023-12-07T15:41:16;15.70;40.70